createdAt,value
2019-02-11T00:01:26.154Z,98517.19
2019-02-11T00:03:59.687Z,98524.59
2019-02-11T00:06:24.683Z,98548.84
2019-02-11T00:08:53.026Z,98555.77
2019-02-11T00:11:21.505Z,98557.31
2019-02-11T00:13:49.847Z,98565.47
2019-02-11T00:16:18.249Z,98571.68
2019-02-11T00:18:46.607Z,98582.98
2019-02-11T00:21:15.066Z,98586.04
2019-02-11T00:23:43.422Z,98613.87
2019-02-11T00:26:11.812Z,98616.08
2019-02-11T00:28:40.169Z,98642.86
2019-02-11T00:31:08.607Z,98671.79
2019-02-11T00:33:37.008Z,98664.47
2019-02-11T00:36:05.478Z,98673.36
2019-02-11T00:38:34.028Z,98672.35
2019-02-11T00:41:02.488Z,98674.27
2019-02-11T00:43:30.854Z,98684.52
2019-02-11T00:45:59.234Z,98694.53
2019-02-11T00:48:27.591Z,98671.96
2019-02-11T00:50:56.027Z,98667.67
2019-02-11T00:53:24.626Z,98683.53
2019-02-11T00:55:52.966Z,98688.13
2019-02-11T00:58:21.353Z,98695.25
2019-02-11T01:00:49.783Z,98696.53
2019-02-11T01:03:18.184Z,98700.30
2019-02-11T01:05:46.529Z,98709.33
2019-02-11T01:08:14.932Z,98709.61
2019-02-11T01:10:43.287Z,98717.05
2019-02-11T01:13:11.682Z,98725.30
2019-02-11T01:15:40.147Z,98729.91
2019-02-11T01:18:08.525Z,98723.00
2019-02-11T01:20:36.878Z,98726.55
2019-02-11T01:23:05.247Z,98731.16
2019-02-11T01:25:33.620Z,98726.83
2019-02-11T01:28:02.009Z,98734.21
2019-02-11T01:30:30.363Z,98736.99
2019-02-11T01:32:58.760Z,98745.89
2019-02-11T01:35:27.097Z,98758.92
2019-02-11T01:37:55.480Z,98752.19
2019-02-11T01:40:23.917Z,98765.75
2019-02-11T01:42:52.300Z,98765.23
2019-02-11T01:45:20.729Z,98775.55
2019-02-11T01:47:49.098Z,98780.61
2019-02-11T01:50:17.525Z,98785.86
2019-02-11T01:52:45.908Z,98787.69
2019-02-11T01:55:14.307Z,98800.84
2019-02-11T01:57:42.681Z,98804.98
2019-02-11T02:00:14.562Z,98803.25
2019-02-11T02:02:42.990Z,98801.42
2019-02-11T02:05:11.442Z,98803.25
2019-02-11T02:07:39.791Z,98802.97
2019-02-11T02:10:11.433Z,98808.75
2019-02-11T02:12:39.875Z,98811.16
2019-02-11T02:15:10.679Z,98818.94
2019-02-11T02:17:39.101Z,98818.41
2019-02-11T02:20:10.785Z,98821.52
2019-02-11T02:22:39.213Z,98822.77
2019-02-11T02:25:09.329Z,98831.80
2019-02-11T02:27:37.688Z,98839.30
2019-02-11T02:30:09.197Z,98838.98
2019-02-11T02:32:37.547Z,98840.71
2019-02-11T02:35:06.793Z,98842.30
2019-02-11T02:37:35.151Z,98843.37
2019-02-11T02:40:04.572Z,98839.16
2019-02-11T02:42:33.003Z,98845.45
2019-02-11T02:45:01.380Z,98843.70
2019-02-11T02:47:29.790Z,98845.52
2019-02-11T02:49:58.173Z,98850.09
2019-02-11T02:52:26.526Z,98854.19
2019-02-11T02:54:54.922Z,98858.48
2019-02-11T02:57:23.344Z,98861.62
2019-02-11T02:59:51.779Z,98869.46
2019-02-11T03:02:20.177Z,98885.63
2019-02-11T03:04:48.635Z,98882.11
2019-02-11T03:07:16.989Z,98891.13
2019-02-11T03:09:45.361Z,98899.46
2019-02-11T03:12:15.244Z,98908.17
2019-02-11T03:14:43.620Z,98912.91
2019-02-11T03:17:12.035Z,98916.91
2019-02-11T03:19:40.462Z,98932.97
2019-02-11T03:22:08.855Z,98927.60
2019-02-11T03:24:37.207Z,98930.43
2019-02-11T03:27:05.665Z,98938.68
2019-02-11T03:29:34.031Z,98943.06
2019-02-11T03:32:02.575Z,98945.42
2019-02-11T03:34:31.038Z,98953.91
2019-02-11T03:36:59.502Z,98958.81
2019-02-11T03:39:27.860Z,98968.61
2019-02-11T03:41:56.311Z,98970.80
2019-02-11T03:44:24.892Z,98970.55
2019-02-11T03:46:53.287Z,98978.70
2019-02-11T03:49:21.637Z,98984.30
2019-02-11T03:51:50.625Z,98988.98
2019-02-11T03:54:19.037Z,98985.74
2019-02-11T03:56:47.619Z,98983.90
2019-02-11T03:59:16.208Z,98991.09
2019-02-11T04:01:44.606Z,98999.94
2019-02-11T04:04:13.248Z,98993.39
2019-02-11T04:06:42.124Z,99002.81
2019-02-11T04:09:12.369Z,99006.95
2019-02-11T04:11:40.750Z,99005.14
2019-02-11T04:14:09.375Z,99014.97
2019-02-11T04:16:37.880Z,99026.18
2019-02-11T04:19:06.376Z,99035.26
2019-02-11T04:21:34.857Z,99034.02
2019-02-11T04:24:03.360Z,99048.29
2019-02-11T04:26:32.597Z,99056.89
2019-02-11T04:29:01.017Z,99059.80
2019-02-11T04:31:29.467Z,99062.29
2019-02-11T04:33:58.305Z,99057.67
2019-02-11T04:36:26.771Z,99072.83
2019-02-11T04:38:55.197Z,99077.56
2019-02-11T04:41:23.662Z,99088.97
2019-02-11T04:43:52.015Z,99094.21
2019-02-11T04:46:20.488Z,99102.30
2019-02-11T04:48:48.899Z,99101.05
2019-02-11T04:51:17.258Z,99093.99
2019-02-11T04:53:45.653Z,99105.31
2019-02-11T04:56:14.002Z,99107.53
2019-02-11T04:58:42.610Z,99107.95
2019-02-11T05:01:11.015Z,99114.70
2019-02-11T05:03:39.411Z,99118.59
2019-02-11T05:06:07.755Z,99118.63
2019-02-11T05:08:36.210Z,99127.02
2019-02-11T05:11:04.636Z,99128.80
2019-02-11T05:13:33.091Z,99124.73
2019-02-11T05:16:01.446Z,99135.16
2019-02-11T05:18:29.839Z,99136.83
2019-02-11T05:20:58.213Z,99137.52
2019-02-11T05:23:26.578Z,99133.08
2019-02-11T05:25:54.972Z,99139.94
2019-02-11T05:28:23.362Z,99140.45
2019-02-11T05:30:51.704Z,99145.08
2019-02-11T05:33:20.316Z,99155.99
2019-02-11T05:35:48.752Z,99153.35
2019-02-11T05:38:17.296Z,99153.50
2019-02-11T05:40:45.645Z,99163.39
2019-02-11T05:43:14.086Z,99164.64
2019-02-11T05:45:42.618Z,99166.62
2019-02-11T05:48:11.033Z,99172.61
2019-02-11T05:50:39.693Z,99181.38
2019-02-11T05:53:08.162Z,99185.21
2019-02-11T05:55:36.519Z,99192.25
2019-02-11T05:58:05.038Z,99204.33
2019-02-11T06:00:33.461Z,99209.47
2019-02-11T06:03:01.928Z,99214.48
2019-02-11T06:05:30.355Z,99221.84
2019-02-11T06:07:58.703Z,99222.86
2019-02-11T06:10:27.340Z,99225.50
2019-02-11T06:12:56.265Z,99231.70
2019-02-11T06:15:24.624Z,99240.04
2019-02-11T06:17:53.048Z,99244.22
2019-02-11T06:20:21.438Z,99240.69
2019-02-11T06:22:49.794Z,99249.45
2019-02-11T06:25:18.818Z,99249.86
2019-02-11T06:27:47.307Z,99250.75
2019-02-11T06:30:15.711Z,99249.62
2019-02-11T06:32:44.131Z,99259.83
2019-02-11T06:35:13.234Z,99264.22
2019-02-11T06:37:41.584Z,99271.91
2019-02-11T06:40:10.932Z,99286.22
2019-02-11T06:42:39.365Z,99292.30
2019-02-11T06:45:13.427Z,99300.98
2019-02-11T06:47:41.909Z,99308.77
2019-02-11T06:50:13.436Z,99309.11
2019-02-11T06:52:41.793Z,99320.14
2019-02-11T06:55:11.729Z,99315.73
2019-02-11T06:57:40.088Z,99328.84
2019-02-11T07:00:13.506Z,99332.31
2019-02-11T07:02:41.867Z,99339.55
2019-02-11T07:05:10.352Z,99346.05
2019-02-11T07:07:38.703Z,99348.06
2019-02-11T07:10:10.031Z,99349.86
2019-02-11T07:12:38.468Z,99358.59
2019-02-11T07:15:21.797Z,99366.30
2019-02-11T07:17:44.998Z,99369.23
2019-02-11T07:20:13.510Z,99383.86
2019-02-11T07:22:41.865Z,99393.53
2019-02-11T07:25:10.392Z,99393.66
2019-02-11T07:27:38.913Z,99400.64
2019-02-11T07:30:15.118Z,99404.73
2019-02-11T07:32:43.467Z,99418.45
2019-02-11T07:35:11.853Z,99414.63
2019-02-11T07:37:40.246Z,99415.63
2019-02-11T07:40:10.978Z,99416.27
2019-02-11T07:42:49.880Z,99419.44
2019-02-11T07:45:20.161Z,99419.67
2019-02-11T07:47:48.602Z,99420.96
2019-02-11T07:50:17.403Z,99419.70
2019-02-11T07:52:46.000Z,99424.28
2019-02-11T07:55:15.814Z,99428.92
2019-02-11T07:57:44.162Z,99446.23
2019-02-11T08:00:12.735Z,99451.56
2019-02-11T08:02:41.868Z,99460.66
2019-02-11T08:05:10.748Z,99469.39
2019-02-11T08:07:39.360Z,99471.20
2019-02-11T08:10:08.617Z,99470.91
2019-02-11T08:12:37.071Z,99482.50
2019-02-11T08:15:08.168Z,99478.80
2019-02-11T08:17:36.621Z,99486.88
2019-02-11T08:20:08.240Z,99491.57
2019-02-11T08:22:36.757Z,99494.00
2019-02-11T08:27:22.709Z,99494.61
2019-02-11T08:29:51.120Z,99501.30
2019-02-11T08:32:19.894Z,99503.27
2019-02-11T08:34:48.322Z,99508.05
2019-02-11T08:37:16.920Z,99519.50
2019-02-11T08:39:45.409Z,99515.45
2019-02-11T08:42:13.816Z,99526.13
2019-02-11T08:44:42.262Z,99516.96
2019-02-11T08:47:10.648Z,99527.93
2019-02-11T08:49:39.072Z,99536.56
2019-02-11T08:52:07.843Z,99540.08
2019-02-11T08:54:36.200Z,99553.56
2019-02-11T08:57:04.583Z,99561.27
2019-02-11T08:59:33.223Z,99566.58
2019-02-11T09:02:01.868Z,99569.55
2019-02-11T09:04:31.375Z,99581.81
2019-02-11T09:06:59.902Z,99575.05
2019-02-11T09:09:28.486Z,99582.91
2019-02-11T09:11:56.893Z,99582.78
2019-02-11T09:14:25.327Z,99580.52
2019-02-11T09:16:53.958Z,99587.84
2019-02-11T09:19:22.527Z,99592.78
2019-02-11T09:21:51.512Z,99597.06
2019-02-11T09:24:19.933Z,99604.47
2019-02-11T09:26:48.876Z,99600.16
2019-02-11T09:29:17.564Z,99605.17
2019-02-11T09:31:47.779Z,99614.44
2019-02-11T09:34:16.316Z,99611.17
2019-02-11T09:36:45.122Z,99623.36
2019-02-11T09:39:14.056Z,99625.55
2019-02-11T09:41:42.810Z,99627.97
2019-02-11T09:44:11.533Z,99632.27
2019-02-11T09:46:40.091Z,99629.47
2019-02-11T09:49:09.010Z,99638.13
2019-02-11T09:51:40.693Z,99647.09
2019-02-11T09:54:09.112Z,99655.30
2019-02-11T09:56:37.587Z,99659.13
2019-02-11T09:59:06.128Z,99649.13
2019-02-11T10:01:34.610Z,99651.72
2019-02-11T10:04:03.307Z,99663.19
2019-02-11T10:06:31.793Z,99665.95
2019-02-11T10:09:00.362Z,99667.22
2019-02-11T10:11:28.784Z,99671.92
2019-02-11T10:13:57.248Z,99689.75
2019-02-11T10:16:25.674Z,99684.41
2019-02-11T10:18:54.063Z,99693.25
2019-02-11T10:21:22.555Z,99699.93
2019-02-11T10:23:50.962Z,99707.27
2019-02-11T10:26:19.383Z,99719.08
2019-02-11T10:28:47.763Z,99731.39
2019-02-11T10:31:16.251Z,99743.94
2019-02-11T10:33:44.640Z,99740.45
2019-02-11T10:36:13.436Z,99748.63
2019-02-11T10:38:41.923Z,99734.05
2019-02-11T10:41:10.407Z,99755.13
2019-02-11T10:43:38.813Z,99765.31
2019-02-11T10:46:07.301Z,99759.49
2019-02-11T10:48:35.684Z,99761.52
2019-02-11T10:51:04.102Z,99779.97
2019-02-11T10:53:32.526Z,99769.66
2019-02-11T10:56:00.875Z,99779.48
2019-02-11T10:58:29.326Z,99778.05
2019-02-11T11:00:57.904Z,99771.31
2019-02-11T11:03:26.393Z,99777.80
2019-02-11T11:05:54.758Z,99773.34
2019-02-11T11:08:23.290Z,99773.57
2019-02-11T11:10:51.840Z,99781.63
2019-02-11T11:13:20.457Z,99783.73
2019-02-11T11:15:48.997Z,99793.97
2019-02-11T11:18:17.774Z,99804.37
2019-02-11T11:20:46.619Z,99781.20
2019-02-11T11:23:15.717Z,99783.47
2019-02-11T11:25:44.505Z,99791.30
2019-02-11T11:28:12.940Z,99796.71
2019-02-11T11:30:41.387Z,99787.75
2019-02-11T11:33:09.843Z,99794.73
2019-02-11T11:35:38.270Z,99791.92
2019-02-11T11:38:06.824Z,99797.85
2019-02-11T11:40:35.526Z,99806.59
2019-02-11T11:43:03.964Z,99798.80
2019-02-11T11:45:32.760Z,99817.60
2019-02-11T11:48:01.662Z,99806.41
2019-02-11T11:50:30.217Z,99806.98
2019-02-11T11:52:58.726Z,99811.16
2019-02-11T11:55:27.335Z,99818.55
2019-02-11T11:57:55.878Z,99825.19
2019-02-11T12:00:31.926Z,99824.23
2019-02-11T12:03:03.985Z,99830.00
2019-02-11T12:05:31.150Z,99826.89
2019-02-11T12:07:59.652Z,99840.30
2019-02-11T12:10:28.268Z,99850.17
2019-02-11T12:12:56.773Z,99860.72
2019-02-11T12:15:27.479Z,99828.34
2019-02-11T12:17:56.290Z,99841.96
2019-02-11T12:20:24.880Z,99848.44
2019-02-11T12:22:53.478Z,99844.72
2019-02-11T12:25:22.113Z,99858.17
2019-02-11T12:27:50.566Z,99872.49
2019-02-11T12:30:26.612Z,99865.41
2019-02-11T12:32:56.111Z,99880.08
2019-02-11T12:35:25.320Z,99868.38
2019-02-11T12:37:53.949Z,99862.48
2019-02-11T12:40:22.772Z,99871.70
2019-02-11T12:42:53.156Z,99875.10
2019-02-11T12:45:25.495Z,99878.40
2019-02-11T12:47:54.088Z,99874.50
2019-02-11T12:50:22.854Z,99896.14
2019-02-11T12:52:51.609Z,99895.91
2019-02-11T12:55:20.231Z,99881.94
2019-02-11T12:57:49.438Z,99900.64
2019-02-11T13:00:22.767Z,99906.83
2019-02-11T13:02:51.416Z,99906.55
2019-02-11T13:05:23.235Z,99904.00
2019-02-11T13:07:50.633Z,99911.16
2019-02-11T13:10:21.448Z,99914.09
2019-02-11T13:12:50.140Z,99910.37
2019-02-11T13:15:57.855Z,99918.33
2019-02-11T13:17:49.958Z,99913.63
2019-02-11T13:20:19.440Z,99916.28
2019-02-11T13:22:48.643Z,99909.77
2019-02-11T13:25:18.182Z,99922.80
2019-02-11T13:27:49.792Z,99928.22
2019-02-11T13:30:23.120Z,99926.05
2019-02-11T13:32:51.870Z,99926.93
2019-02-11T13:35:20.702Z,99918.05
2019-02-11T13:37:49.531Z,99925.50
2019-02-11T13:40:19.820Z,99926.88
2019-02-11T13:42:48.403Z,99931.92
2019-02-11T13:45:20.939Z,99930.38
2019-02-11T13:47:56.142Z,99937.73
2019-02-11T13:50:27.782Z,99943.53
2019-02-11T13:52:57.190Z,99938.05
2019-02-11T13:55:30.198Z,99929.97
2019-02-11T13:58:02.221Z,99936.89
2019-02-11T14:00:33.332Z,99943.74
2019-02-11T14:03:05.785Z,99957.38
2019-02-11T14:05:34.788Z,99970.91
2019-02-11T14:08:03.867Z,99963.23
2019-02-11T14:10:35.260Z,99965.61
2019-02-11T14:13:05.192Z,99967.15
2019-02-11T14:15:33.729Z,99986.55
2019-02-11T14:18:14.330Z,99996.03
2019-02-11T14:20:40.930Z,99993.56
2019-02-11T14:23:09.618Z,99999.66
2019-02-11T14:25:44.983Z,100003.50
2019-02-11T14:28:09.369Z,99994.83
2019-02-11T14:30:39.582Z,100006.61
2019-02-11T14:33:08.895Z,100016.62
2019-02-11T14:35:37.815Z,100006.75
2019-02-11T14:38:06.433Z,100021.13
2019-02-11T14:40:35.513Z,100027.11
2019-02-11T14:43:04.339Z,100035.42
2019-02-11T14:45:32.773Z,100033.09
2019-02-11T14:48:01.965Z,100037.90
2019-02-11T14:50:30.828Z,100047.12
2019-02-11T14:52:59.702Z,100050.28
2019-02-11T14:55:39.973Z,100048.42
2019-02-11T14:58:08.440Z,100058.52
2019-02-11T15:00:37.060Z,100072.02
2019-02-11T15:03:05.617Z,100068.81
2019-02-11T15:05:34.023Z,100067.42
2019-02-11T15:08:02.882Z,100077.76
2019-02-11T15:10:31.449Z,100069.51
2019-02-11T15:12:59.907Z,100086.81
2019-02-11T15:15:28.266Z,100077.59
2019-02-11T15:17:56.802Z,100086.50
2019-02-11T15:20:25.233Z,100090.42
2019-02-11T15:22:53.766Z,100091.61
2019-02-11T15:25:22.474Z,100092.44
2019-02-11T15:27:50.899Z,100102.17
2019-02-11T15:30:20.359Z,100100.74
2019-02-11T15:32:48.803Z,100107.75
2019-02-11T15:35:18.651Z,100117.67
2019-02-11T15:37:46.994Z,100126.95
2019-02-11T15:40:18.482Z,100131.20
2019-02-11T15:42:47.537Z,100134.91
2019-02-11T15:45:16.228Z,100134.14
2019-02-11T15:47:45.847Z,100134.44
2019-02-11T15:50:16.230Z,100132.95
2019-02-11T15:52:44.692Z,100130.17
2019-02-11T15:55:20.486Z,100129.67
2019-02-11T15:57:48.984Z,100123.82
2019-02-11T16:00:22.702Z,100142.97
2019-02-11T16:02:51.853Z,100149.37
2019-02-11T16:05:20.579Z,100172.58
2019-02-11T16:07:48.934Z,100162.08
2019-02-11T16:10:22.978Z,100168.90
2019-02-11T16:12:51.332Z,100172.42
2019-02-11T16:15:19.857Z,100169.32
2019-02-11T16:17:48.245Z,100169.55
2019-02-11T16:20:16.675Z,100179.00
2019-02-11T16:22:45.046Z,100188.77
2019-02-11T16:25:15.013Z,100185.39
2019-02-11T16:27:43.898Z,100194.05
2019-02-11T16:30:15.676Z,100202.64
2019-02-11T16:32:44.166Z,100202.87
2019-02-11T16:35:14.813Z,100219.44
2019-02-11T16:37:43.411Z,100205.69
2019-02-11T16:40:23.744Z,100211.91
2019-02-11T16:42:52.345Z,100221.54
2019-02-11T16:45:22.744Z,100228.08
2019-02-11T16:47:51.533Z,100234.35
2019-02-11T16:50:20.144Z,100237.41
2019-02-11T16:52:48.674Z,100236.44
2019-02-11T16:55:22.212Z,100242.61
2019-02-11T16:57:50.659Z,100254.11
2019-02-11T17:00:20.213Z,100249.52
2019-02-11T17:02:49.959Z,100261.09
2019-02-11T17:05:18.546Z,100256.08
2019-02-11T17:07:46.974Z,100260.80
2019-02-11T17:10:15.905Z,100272.89
2019-02-11T17:12:44.734Z,100277.58
2019-02-11T17:15:20.816Z,100282.75
2019-02-11T17:17:49.370Z,100284.11
2019-02-11T17:20:17.983Z,100276.77
2019-02-11T17:22:46.658Z,100283.53
2019-02-11T17:25:22.189Z,100304.64
2019-02-11T17:27:50.778Z,100302.86
2019-02-11T17:30:24.876Z,100309.16
2019-02-11T17:32:53.727Z,100305.83
2019-02-11T17:35:22.343Z,100306.41
2019-02-11T17:37:50.768Z,100320.78
2019-02-11T17:40:23.267Z,100333.72
2019-02-11T17:42:51.861Z,100339.09
2019-02-11T17:45:23.207Z,100355.14
2019-02-11T17:47:51.675Z,100353.30
2019-02-11T17:50:20.105Z,100362.03
2019-02-11T17:52:49.835Z,100363.94
2019-02-11T17:55:18.251Z,100359.27
2019-02-11T17:57:46.713Z,100366.67
2019-02-11T18:00:25.322Z,100371.73
2019-02-11T18:02:53.786Z,100378.77
2019-02-11T18:05:22.288Z,100384.25
2019-02-11T18:07:50.808Z,100386.44
2019-02-11T18:10:19.226Z,100386.15
2019-02-11T18:12:47.731Z,100401.47
2019-02-11T18:15:16.094Z,100400.52
2019-02-11T18:17:44.569Z,100407.63
2019-02-11T18:20:13.043Z,100411.31
2019-02-11T18:22:42.101Z,100414.62
2019-02-11T18:25:11.034Z,100421.98
2019-02-11T18:27:39.723Z,100426.31
2019-02-11T18:30:16.006Z,100427.75
2019-02-11T18:32:44.487Z,100432.17
2019-02-11T18:35:18.172Z,100435.47
2019-02-11T18:37:48.609Z,100440.37
2019-02-11T18:40:18.152Z,100439.05
2019-02-11T18:42:47.385Z,100434.85
2019-02-11T18:45:17.403Z,100437.06
2019-02-11T18:47:48.196Z,100443.78
2019-02-11T18:50:19.641Z,100439.39
2019-02-11T18:52:50.456Z,100453.69
2019-02-11T18:55:25.023Z,100455.53
2019-02-11T18:57:54.061Z,100459.59
2019-02-11T19:00:22.563Z,100465.30
2019-02-11T19:02:51.082Z,100472.47
2019-02-11T19:05:19.562Z,100472.84
2019-02-11T19:07:48.132Z,100485.64
2019-02-11T19:10:17.652Z,100480.70
2019-02-11T19:12:46.210Z,100493.33
2019-02-11T19:15:16.379Z,100500.76
2019-02-11T19:17:44.907Z,100503.81
2019-02-11T19:20:15.583Z,100506.09
2019-02-11T19:22:44.850Z,100516.80
2019-02-11T19:25:13.419Z,100520.20
2019-02-11T19:27:42.299Z,100529.84
2019-02-11T19:30:22.463Z,100533.69
2019-02-11T19:32:51.074Z,100536.42
2019-02-11T19:35:19.505Z,100540.25
2019-02-11T19:37:47.934Z,100535.95
2019-02-11T19:40:18.159Z,100542.52
2019-02-11T19:42:46.613Z,100547.20
2019-02-11T19:45:22.394Z,100550.09
2019-02-11T19:47:50.870Z,100566.47
2019-02-11T19:50:19.701Z,100557.09
2019-02-11T19:52:48.734Z,100545.67
2019-02-11T19:55:17.537Z,100526.50
2019-02-11T19:57:46.038Z,100528.04
2019-02-11T20:00:21.640Z,100543.08
2019-02-11T20:02:50.500Z,100557.30
2019-02-11T20:05:19.619Z,100552.97
2019-02-11T20:07:48.272Z,100548.74
2019-02-11T20:10:23.846Z,100539.50
2019-02-11T20:12:52.299Z,100541.00
2019-02-11T20:15:23.696Z,100539.67
2019-02-11T20:17:53.243Z,100535.19
2019-02-11T20:20:22.877Z,100537.92
2019-02-11T20:22:51.307Z,100540.02
2019-02-11T20:25:19.794Z,100536.05
2019-02-11T20:27:48.375Z,100546.98
2019-02-11T20:30:28.334Z,100536.44
2019-02-11T20:32:56.843Z,100518.25
2019-02-11T20:35:25.458Z,100537.69
2019-02-11T20:37:53.969Z,100538.19
2019-02-11T20:40:28.425Z,100544.58
2019-02-11T20:42:57.006Z,100544.25
2019-02-11T20:45:31.659Z,100559.45
2019-02-11T20:48:00.313Z,100555.21
2019-02-11T20:50:28.784Z,100559.91
2019-02-11T20:52:57.155Z,100574.55
2019-02-11T20:55:25.645Z,100582.81
2019-02-11T20:57:57.053Z,100587.47
2019-02-11T21:00:26.325Z,100589.61
2019-02-11T21:02:54.849Z,100594.79
2019-02-11T21:05:24.037Z,100606.95
2019-02-11T21:07:52.539Z,100610.11
2019-02-11T21:10:25.111Z,100616.64
2019-02-11T21:12:53.627Z,100645.59
2019-02-11T21:15:22.461Z,100661.58
2019-02-11T21:17:50.902Z,100671.95
2019-02-11T21:20:28.055Z,100671.95
2019-02-11T21:22:56.594Z,100673.77
2019-02-11T21:25:25.147Z,100685.41
2019-02-11T21:27:53.582Z,100684.11
2019-02-11T21:30:21.971Z,100697.05
2019-02-11T21:32:50.467Z,100694.01
2019-02-11T21:35:18.920Z,100698.73
2019-02-11T21:37:47.356Z,100704.31
2019-02-11T21:40:15.750Z,100709.55
2019-02-11T21:42:44.651Z,100712.19
2019-02-11T21:45:14.290Z,100713.88
2019-02-11T21:47:42.736Z,100720.79
2019-02-11T21:50:16.725Z,100721.20
2019-02-11T21:52:45.087Z,100717.80
2019-02-11T21:55:18.172Z,100727.31
2019-02-11T21:57:46.643Z,100726.01
2019-02-11T22:00:18.407Z,100733.79
2019-02-11T22:02:46.775Z,100735.91
2019-02-11T22:05:15.276Z,100735.05
2019-02-11T22:07:43.637Z,100740.23
2019-02-11T22:10:18.238Z,100739.36
2019-02-11T22:12:46.708Z,100744.14
2019-02-11T22:15:15.611Z,100739.36
2019-02-11T22:17:44.549Z,100745.83
2019-02-11T22:20:18.776Z,100744.94
2019-02-11T22:22:47.495Z,100743.61
2019-02-11T22:25:15.887Z,100739.26
2019-02-11T22:27:50.683Z,100740.55
2019-02-11T22:30:24.083Z,100748.32
2019-02-11T22:32:52.787Z,100745.72
2019-02-11T22:35:21.284Z,100743.98
2019-02-11T22:37:51.389Z,100755.63
2019-02-11T22:40:21.221Z,100751.30
2019-02-11T22:42:49.912Z,100753.59
2019-02-11T22:45:26.942Z,100752.73
2019-02-11T22:47:55.520Z,100757.03
2019-02-11T22:50:24.210Z,100762.22
2019-02-11T22:52:52.890Z,100752.75
2019-02-11T22:55:21.416Z,100755.77
2019-02-11T22:57:50.147Z,100755.34
2019-02-11T23:00:41.073Z,100760.06
2019-02-11T23:03:09.623Z,100766.54
2019-02-11T23:05:38.512Z,100773.85
2019-02-11T23:08:08.605Z,100775.16
2019-02-11T23:10:37.128Z,100781.64
2019-02-11T23:13:05.905Z,100787.59
2019-02-11T23:15:34.401Z,100783.66
2019-02-11T23:18:02.976Z,100790.03
2019-02-11T23:20:31.482Z,100785.40
2019-02-11T23:22:59.938Z,100797.03
2019-02-11T23:25:28.451Z,100793.14
2019-02-11T23:27:57.213Z,100797.50
2019-02-11T23:30:25.747Z,100796.98
2019-02-11T23:32:54.411Z,100803.02
2019-02-11T23:35:24.024Z,100800.45
2019-02-11T23:37:54.035Z,100804.70
2019-02-11T23:40:22.589Z,100806.42
2019-02-11T23:42:51.204Z,100811.19
2019-02-11T23:45:19.861Z,100810.76
2019-02-11T23:47:48.626Z,100815.81
2019-02-11T23:50:17.941Z,100821.05
2019-02-11T23:52:48.322Z,100818.50
2019-02-11T23:55:16.763Z,100830.09
2019-02-11T23:57:47.271Z,100830.94
